createdAt,value
2023-04-18T00:00:24.910Z,13.81
2023-04-18T00:03:30.037Z,13.81
2023-04-18T00:06:33.126Z,13.92
2023-04-18T00:09:36.850Z,13.74
2023-04-18T00:12:40.415Z,13.84
2023-04-18T00:15:44.804Z,13.81
2023-04-18T00:18:48.258Z,13.55
2023-04-18T00:21:53.222Z,13.40
2023-04-18T00:24:56.039Z,13.32
2023-04-18T00:27:58.521Z,13.43
2023-04-18T00:31:01.169Z,13.38
2023-04-18T00:34:03.810Z,13.41
2023-04-18T00:37:07.196Z,13.30
2023-04-18T00:40:10.316Z,13.39
2023-04-18T00:43:14.935Z,13.54
2023-04-18T00:46:18.152Z,13.48
2023-04-18T00:49:22.211Z,13.49
2023-04-18T00:52:27.312Z,13.51
2023-04-18T00:55:29.965Z,13.51
2023-04-18T00:58:32.691Z,13.44
2023-04-18T01:01:35.483Z,13.44
2023-04-18T01:04:38.793Z,13.44
2023-04-18T01:07:45.541Z,13.48
2023-04-18T01:10:49.606Z,13.42
2023-04-18T01:14:02.559Z,13.43
2023-04-18T01:17:05.123Z,13.48
2023-04-18T01:20:09.601Z,13.33
2023-04-18T01:23:12.745Z,13.48
2023-04-18T01:26:15.492Z,13.49
2023-04-18T01:29:18.299Z,13.56
2023-04-18T01:32:21.669Z,13.47
2023-04-18T01:35:25.729Z,13.52
2023-04-18T01:38:33.172Z,13.49
2023-04-18T01:41:36.964Z,13.42
2023-04-18T01:44:39.507Z,13.45
2023-04-18T01:47:42.246Z,13.49
2023-04-18T01:50:47.368Z,13.46
2023-04-18T01:53:51.558Z,13.54
2023-04-18T01:56:54.371Z,13.52
2023-04-18T01:59:58.561Z,13.54
2023-04-18T02:03:01.676Z,13.54
2023-04-18T02:06:05.757Z,13.49
2023-04-18T02:09:08.351Z,13.42
2023-04-18T02:12:12.637Z,13.47
2023-04-18T02:15:15.727Z,13.47
2023-04-18T02:18:18.547Z,13.56
2023-04-18T02:21:22.742Z,13.47
2023-04-18T02:24:25.502Z,13.46
2023-04-18T02:27:30.794Z,13.54
2023-04-18T02:30:33.465Z,13.51
2023-04-18T02:33:38.774Z,13.33
2023-04-18T02:36:41.674Z,13.46
2023-04-18T02:39:46.495Z,13.28
2023-04-18T02:42:49.133Z,13.23
2023-04-18T02:45:51.829Z,13.29
2023-04-18T02:48:55.663Z,13.41
2023-04-18T02:52:01.284Z,13.33
2023-04-18T02:55:04.382Z,13.32
2023-04-18T02:58:12.810Z,13.21
2023-04-18T03:01:41.536Z,13.30
2023-04-18T03:04:47.820Z,13.28
2023-04-18T03:07:51.705Z,13.33
2023-04-18T03:10:56.451Z,13.25
2023-04-18T03:14:01.079Z,13.24
2023-04-18T03:17:11.547Z,13.22
2023-04-18T03:20:18.043Z,13.29
2023-04-18T03:23:20.762Z,13.32
2023-04-18T03:26:24.581Z,13.32
2023-04-18T03:29:28.819Z,13.32
2023-04-18T03:32:35.286Z,13.33
2023-04-18T03:35:38.527Z,13.33
2023-04-18T03:38:42.075Z,13.30
2023-04-18T03:41:45.000Z,13.35
2023-04-18T03:44:47.783Z,13.35
2023-04-18T03:47:50.601Z,13.22
2023-04-18T03:50:53.873Z,13.21
2023-04-18T03:53:57.600Z,13.29
2023-04-18T03:57:00.984Z,13.20
2023-04-18T04:00:08.130Z,13.26
2023-04-18T04:03:19.323Z,13.22
2023-04-18T04:06:22.871Z,13.27
2023-04-18T04:09:27.465Z,13.17
2023-04-18T04:12:31.480Z,13.06
2023-04-18T04:15:37.473Z,12.91
2023-04-18T04:18:42.773Z,13.01
2023-04-18T04:21:45.719Z,13.06
2023-04-18T04:24:51.735Z,13.08
2023-04-18T04:28:01.788Z,13.18
2023-04-18T04:31:08.434Z,13.08
2023-04-18T04:34:11.737Z,12.97
2023-04-18T04:37:15.216Z,12.88
2023-04-18T04:40:30.814Z,12.84
2023-04-18T04:43:51.347Z,12.95
2023-04-18T04:46:58.278Z,12.92
2023-04-18T04:50:11.734Z,13.03
2023-04-18T04:53:14.346Z,13.12
2023-04-18T04:56:17.271Z,13.15
2023-04-18T04:59:19.900Z,12.92
2023-04-18T05:02:23.922Z,13.04
2023-04-18T05:05:26.806Z,13.00
2023-04-18T05:08:29.324Z,13.09
2023-04-18T05:11:32.057Z,13.07
2023-04-18T05:14:34.672Z,13.04
2023-04-18T05:17:37.335Z,12.93
2023-04-18T05:20:40.523Z,13.01
2023-04-18T05:23:43.061Z,13.03
2023-04-18T05:26:46.221Z,13.20
2023-04-18T05:29:51.023Z,13.31
2023-04-18T05:32:53.616Z,13.43
2023-04-18T05:35:57.201Z,13.57
2023-04-18T05:38:59.974Z,13.69
2023-04-18T05:42:03.443Z,13.73
2023-04-18T05:45:06.420Z,13.82
2023-04-18T05:48:09.209Z,13.94
2023-04-18T05:51:11.972Z,14.07
2023-04-18T05:54:14.947Z,14.08
2023-04-18T05:57:17.629Z,14.24
2023-04-18T06:00:20.508Z,14.36
2023-04-18T06:03:23.495Z,14.36
2023-04-18T06:06:27.435Z,14.52
2023-04-18T06:09:30.217Z,14.68
2023-04-18T06:12:33.297Z,14.75
2023-04-18T06:15:35.876Z,14.79
2023-04-18T06:18:39.088Z,14.82
2023-04-18T06:21:42.883Z,14.86
2023-04-18T06:24:45.487Z,15.05
2023-04-18T06:27:48.236Z,15.19
2023-04-18T06:30:50.925Z,15.26
2023-04-18T06:33:53.548Z,15.35
2023-04-18T06:36:56.399Z,15.53
2023-04-18T06:39:59.023Z,15.73
2023-04-18T06:43:01.705Z,15.82
2023-04-18T06:46:06.300Z,16.08
2023-04-18T06:49:09.144Z,16.31
2023-04-18T06:52:11.776Z,16.37
2023-04-18T06:55:14.483Z,16.43
2023-04-18T06:58:17.270Z,16.50
2023-04-18T07:01:20.004Z,16.55
2023-04-18T07:04:23.147Z,16.52
2023-04-18T07:07:26.534Z,16.54
2023-04-18T07:10:30.786Z,16.73
2023-04-18T07:13:33.667Z,17.03
2023-04-18T07:16:36.804Z,17.07
2023-04-18T07:19:40.513Z,16.95
2023-04-18T07:22:43.019Z,17.11
2023-04-18T07:25:45.715Z,17.18
2023-04-18T07:28:49.230Z,17.39
2023-04-18T07:31:52.144Z,17.52
2023-04-18T07:34:55.505Z,17.67
2023-04-18T07:37:58.377Z,17.60
2023-04-18T07:41:02.018Z,17.98
2023-04-18T07:44:04.942Z,18.32
2023-04-18T07:47:11.699Z,18.54
2023-04-18T07:50:14.383Z,18.70
2023-04-18T07:53:17.334Z,18.80
2023-04-18T07:56:21.696Z,18.88
2023-04-18T07:59:24.167Z,19.22
2023-04-18T08:02:26.958Z,19.28
2023-04-18T08:05:30.812Z,19.78
2023-04-18T08:08:33.707Z,19.97
2023-04-18T08:11:36.417Z,19.94
2023-04-18T08:14:38.975Z,19.96
2023-04-18T08:17:44.028Z,19.75
2023-04-18T08:20:47.283Z,19.39
2023-04-18T08:23:50.274Z,19.24
2023-04-18T08:26:52.838Z,19.28
2023-04-18T08:29:55.980Z,19.28
2023-04-18T08:33:00.249Z,19.47
2023-04-18T08:36:03.284Z,19.73
2023-04-18T08:39:07.997Z,19.66
2023-04-18T08:42:11.519Z,19.51
2023-04-18T08:45:14.290Z,19.59
2023-04-18T08:48:18.505Z,19.85
2023-04-18T08:51:21.772Z,19.97
2023-04-18T08:54:25.571Z,20.11
2023-04-18T08:57:31.158Z,20.31
2023-04-18T09:00:34.280Z,20.29
2023-04-18T09:03:40.107Z,20.42
2023-04-18T09:06:52.569Z,20.59
2023-04-18T09:09:59.903Z,20.54
2023-04-18T09:13:04.426Z,20.68
2023-04-18T09:16:07.360Z,21.29
2023-04-18T09:19:18.806Z,21.89
2023-04-18T09:22:22.026Z,22.38
2023-04-18T09:25:29.476Z,22.61
2023-04-18T09:28:33.602Z,22.77
2023-04-18T09:31:55.097Z,23.31
2023-04-18T09:35:04.831Z,23.67
2023-04-18T09:38:08.818Z,24.11
2023-04-18T09:41:12.981Z,25.01
2023-04-18T09:44:17.150Z,26.09
2023-04-18T09:47:20.570Z,25.58
2023-04-18T09:50:23.363Z,26.34
2023-04-18T09:53:26.825Z,25.75
2023-04-18T09:56:32.726Z,24.73
2023-04-18T09:59:57.941Z,24.57
2023-04-18T10:03:11.041Z,24.74
2023-04-18T10:06:16.824Z,25.34
2023-04-18T10:09:21.304Z,25.35
2023-04-18T10:12:24.484Z,25.93
2023-04-18T10:15:29.629Z,28.31
2023-04-18T10:18:32.309Z,27.85
2023-04-18T10:21:34.998Z,27.99
2023-04-18T10:24:53.588Z,27.31
2023-04-18T10:27:58.541Z,26.78
2023-04-18T10:31:03.913Z,25.72
2023-04-18T10:34:07.414Z,24.77
2023-04-18T10:37:12.879Z,24.23
2023-04-18T10:40:15.852Z,24.21
2023-04-18T10:43:18.516Z,24.17
2023-04-18T10:46:31.862Z,24.69
2023-04-18T10:49:38.140Z,24.97
2023-04-18T10:52:41.792Z,25.00
2023-04-18T10:55:54.549Z,24.74
2023-04-18T10:59:01.541Z,24.98
2023-04-18T11:02:30.380Z,25.81
2023-04-18T11:05:33.422Z,27.44
2023-04-18T11:08:36.504Z,28.94
2023-04-18T11:11:39.415Z,26.75
2023-04-18T11:14:47.984Z,26.12
2023-04-18T11:18:04.617Z,26.60
2023-04-18T11:21:07.963Z,25.84
2023-04-18T11:24:11.690Z,24.96
2023-04-18T11:27:15.363Z,24.20
2023-04-18T11:30:18.745Z,23.56
2023-04-18T11:33:21.500Z,24.13
2023-04-18T11:36:24.141Z,23.81
2023-04-18T11:39:27.112Z,24.50
2023-04-18T11:42:33.263Z,24.65
2023-04-18T11:45:36.181Z,25.98
2023-04-18T11:48:41.110Z,25.35
2023-04-18T11:51:46.347Z,24.89
2023-04-18T11:54:49.152Z,24.27
2023-04-18T11:57:55.092Z,23.64
2023-04-18T12:00:57.913Z,23.20
2023-04-18T12:04:05.460Z,22.79
2023-04-18T12:07:08.464Z,24.04
2023-04-18T12:10:20.566Z,25.14
2023-04-18T12:13:31.094Z,28.32
2023-04-18T12:16:33.848Z,27.33
2023-04-18T12:19:37.315Z,27.25
2023-04-18T12:22:42.447Z,26.75
2023-04-18T12:25:45.836Z,27.28
2023-04-18T12:28:53.909Z,27.82
2023-04-18T12:31:56.870Z,28.49
2023-04-18T12:34:59.700Z,27.52
2023-04-18T12:38:03.155Z,25.79
2023-04-18T12:41:05.821Z,24.77
2023-04-18T12:44:09.389Z,23.96
2023-04-18T12:47:12.076Z,23.42
2023-04-18T12:50:20.606Z,22.83
2023-04-18T12:53:23.426Z,22.42
2023-04-18T12:56:26.077Z,22.05
2023-04-18T12:59:30.025Z,21.83
2023-04-18T13:02:35.349Z,22.01
2023-04-18T13:05:38.160Z,25.63
2023-04-18T13:08:40.914Z,32.00
2023-04-18T13:11:43.823Z,34.70
2023-04-18T13:14:46.571Z,35.36
2023-04-18T13:17:49.274Z,34.78
2023-04-18T13:20:52.658Z,34.77
2023-04-18T13:23:55.561Z,30.10
2023-04-18T13:26:59.293Z,33.45
2023-04-18T13:30:02.820Z,35.39
2023-04-18T13:33:06.616Z,33.72
2023-04-18T13:36:09.482Z,32.88
2023-04-18T13:39:13.257Z,30.05
2023-04-18T13:42:16.366Z,33.74
2023-04-18T13:45:20.654Z,34.59
2023-04-18T13:48:23.402Z,35.50
2023-04-18T13:51:27.785Z,34.82
2023-04-18T13:54:32.055Z,35.61
2023-04-18T13:57:37.009Z,34.98
2023-04-18T14:00:39.818Z,35.78
2023-04-18T14:03:43.905Z,34.08
2023-04-18T14:06:48.821Z,32.72
2023-04-18T14:09:53.731Z,31.87
2023-04-18T14:12:57.396Z,30.57
2023-04-18T14:16:01.283Z,31.20
2023-04-18T14:19:04.074Z,30.67
2023-04-18T14:22:09.435Z,30.70
2023-04-18T14:25:14.205Z,27.81
2023-04-18T14:28:19.230Z,25.62
2023-04-18T14:31:22.833Z,24.93
2023-04-18T14:34:25.573Z,24.63
2023-04-18T14:37:28.327Z,24.31
2023-04-18T14:40:32.734Z,24.02
2023-04-18T14:43:35.799Z,23.95
2023-04-18T14:46:38.583Z,23.99
2023-04-18T14:49:41.419Z,24.00
2023-04-18T14:52:45.790Z,23.83
2023-04-18T14:55:48.343Z,23.82
2023-04-18T14:58:51.187Z,23.75
2023-04-18T15:01:54.491Z,23.66
2023-04-18T15:04:57.664Z,23.58
2023-04-18T15:08:01.297Z,23.44
2023-04-18T15:11:08.389Z,23.40
2023-04-18T15:14:11.853Z,23.30
2023-04-18T15:17:14.437Z,23.21
2023-04-18T15:20:17.012Z,23.00
2023-04-18T15:23:19.939Z,22.85
2023-04-18T15:26:22.555Z,22.89
2023-04-18T15:29:25.071Z,22.88
2023-04-18T15:32:27.840Z,22.79
2023-04-18T15:35:30.545Z,22.55
2023-04-18T15:38:33.378Z,22.33
2023-04-18T15:41:37.442Z,21.93
2023-04-18T15:44:40.415Z,21.70
2023-04-18T15:47:43.050Z,21.57
2023-04-18T15:50:51.251Z,21.58
2023-04-18T15:53:53.977Z,21.58
2023-04-18T15:56:56.941Z,21.62
2023-04-18T15:59:59.784Z,21.59
2023-04-18T16:03:02.415Z,21.58
2023-04-18T16:06:05.571Z,21.56
2023-04-18T16:09:08.334Z,21.15
2023-04-18T16:12:11.006Z,21.05
2023-04-18T16:15:14.938Z,20.83
2023-04-18T16:18:17.410Z,20.40
2023-04-18T16:21:21.013Z,19.98
2023-04-18T16:24:25.617Z,19.60
2023-04-18T16:27:28.607Z,19.32
2023-04-18T16:30:31.215Z,19.17
2023-04-18T16:33:33.883Z,19.02
2023-04-18T16:36:36.597Z,19.06
2023-04-18T16:39:39.506Z,19.24
2023-04-18T16:42:42.252Z,19.19
2023-04-18T16:45:45.202Z,19.26
2023-04-18T16:48:49.029Z,19.27
2023-04-18T16:51:53.081Z,19.18
2023-04-18T16:54:55.984Z,19.11
2023-04-18T16:57:59.700Z,19.10
2023-04-18T17:01:02.811Z,19.17
2023-04-18T17:04:07.175Z,19.14
2023-04-18T17:07:09.954Z,18.98
2023-04-18T17:10:12.956Z,18.83
2023-04-18T17:13:15.628Z,18.65
2023-04-18T17:16:18.759Z,18.50
2023-04-18T17:19:21.524Z,18.28
2023-04-18T17:22:24.666Z,18.24
2023-04-18T17:25:29.164Z,18.04
2023-04-18T17:28:32.522Z,17.85
2023-04-18T17:31:37.118Z,17.68
2023-04-18T17:34:40.668Z,17.46
2023-04-18T17:37:44.327Z,17.31
2023-04-18T17:40:50.820Z,17.25
2023-04-18T17:43:54.540Z,17.20
2023-04-18T17:46:58.285Z,17.15
2023-04-18T17:50:01.712Z,17.10
2023-04-18T17:53:06.459Z,16.98
2023-04-18T17:56:10.879Z,16.80
2023-04-18T17:59:15.068Z,16.73
2023-04-18T18:02:20.358Z,16.64
2023-04-18T18:05:23.702Z,16.58
2023-04-18T18:08:26.754Z,16.48
2023-04-18T18:11:33.164Z,16.46
2023-04-18T18:14:37.143Z,16.47
2023-04-18T18:17:40.322Z,16.49
2023-04-18T18:20:43.857Z,16.49
2023-04-18T18:23:47.289Z,16.45
2023-04-18T18:26:51.744Z,16.42
2023-04-18T18:29:55.374Z,16.49
2023-04-18T18:32:58.693Z,16.54
2023-04-18T18:36:02.585Z,16.61
2023-04-18T18:39:05.958Z,16.51
2023-04-18T18:42:10.430Z,16.52
2023-04-18T18:45:13.937Z,16.58
2023-04-18T18:48:16.856Z,16.67
2023-04-18T18:51:20.176Z,16.76
2023-04-18T18:54:23.495Z,16.83
2023-04-18T18:57:28.303Z,16.76
2023-04-18T19:00:32.984Z,16.82
2023-04-18T19:03:38.330Z,16.85
2023-04-18T19:06:42.479Z,16.90
2023-04-18T19:09:46.999Z,16.86
2023-04-18T19:12:50.499Z,16.97
2023-04-18T19:15:54.591Z,17.01
2023-04-18T19:18:58.414Z,17.03
2023-04-18T19:22:02.669Z,17.00
2023-04-18T19:25:08.366Z,16.85
2023-04-18T19:28:13.597Z,16.57
2023-04-18T19:31:17.391Z,16.47
2023-04-18T19:34:22.735Z,16.42
2023-04-18T19:37:27.121Z,16.35
2023-04-18T19:40:30.775Z,16.30
2023-04-18T19:43:38.279Z,16.25
2023-04-18T19:46:42.245Z,16.29
2023-04-18T19:49:45.544Z,16.35
2023-04-18T19:52:51.143Z,16.37
2023-04-18T19:59:12.388Z,16.18
2023-04-18T20:02:16.524Z,16.19
2023-04-18T20:05:21.324Z,16.28
2023-04-18T20:08:28.982Z,16.28
2023-04-18T20:11:32.579Z,16.31
2023-04-18T20:14:36.022Z,16.27
2023-04-18T20:17:39.730Z,16.42
2023-04-18T20:20:43.778Z,16.27
2023-04-18T20:23:47.937Z,16.18
2023-04-18T20:26:52.053Z,16.12
2023-04-18T20:29:57.258Z,16.10
2023-04-18T20:33:01.461Z,16.12
2023-04-18T20:36:07.289Z,16.12
2023-04-18T20:39:11.003Z,16.19
2023-04-18T20:42:14.820Z,16.21
2023-04-18T20:45:18.064Z,16.11
2023-04-18T20:48:21.775Z,16.10
2023-04-18T20:51:25.650Z,16.11
2023-04-18T20:54:29.160Z,16.04
2023-04-18T20:57:31.924Z,15.96
2023-04-18T21:00:35.288Z,15.88
2023-04-18T21:03:38.332Z,15.70
2023-04-18T21:06:41.335Z,15.63
2023-04-18T21:09:44.012Z,15.50
2023-04-18T21:12:46.772Z,15.41
2023-04-18T21:15:52.095Z,15.39
2023-04-18T21:18:56.037Z,15.26
2023-04-18T21:21:58.947Z,15.32
2023-04-18T21:25:01.599Z,15.39
2023-04-18T21:28:04.815Z,15.35
2023-04-18T21:31:08.415Z,15.34
2023-04-18T21:34:11.404Z,15.33
2023-04-18T21:37:13.890Z,15.35
2023-04-18T21:40:16.682Z,15.37
2023-04-18T21:43:19.197Z,15.36
2023-04-18T21:46:21.863Z,15.31
2023-04-18T21:49:24.694Z,15.32
2023-04-18T21:52:27.275Z,15.35
2023-04-18T21:55:30.077Z,15.23
2023-04-18T21:58:32.826Z,15.30
2023-04-18T22:01:38.262Z,15.27
2023-04-18T22:04:42.671Z,15.18
2023-04-18T22:07:54.970Z,15.05
2023-04-18T22:11:01.169Z,14.91
2023-04-18T22:14:03.934Z,15.02
2023-04-18T22:17:06.866Z,15.01
2023-04-18T22:20:11.440Z,15.01
2023-04-18T22:23:14.190Z,14.94
2023-04-18T22:26:17.040Z,14.85
2023-04-18T22:29:19.652Z,14.79
2023-04-18T22:32:22.397Z,14.77
2023-04-18T22:35:26.258Z,14.80
2023-04-18T22:38:29.316Z,14.86
2023-04-18T22:41:31.904Z,14.99
2023-04-18T22:44:34.691Z,15.06
2023-04-18T22:47:37.543Z,15.12
2023-04-18T22:50:42.707Z,15.13
2023-04-18T22:53:46.954Z,15.08
2023-04-18T22:56:49.781Z,14.94
2023-04-18T22:59:52.597Z,14.93
2023-04-18T23:02:55.236Z,14.99
2023-04-18T23:05:58.283Z,14.97
2023-04-18T23:09:03.046Z,14.84
2023-04-18T23:12:06.886Z,14.88
2023-04-18T23:15:09.828Z,14.94
2023-04-18T23:18:12.496Z,14.91
2023-04-18T23:21:15.056Z,14.93
2023-04-18T23:24:17.910Z,14.93
2023-04-18T23:27:20.651Z,14.92
2023-04-18T23:30:23.243Z,14.89
2023-04-18T23:33:26.799Z,14.92
2023-04-18T23:36:29.801Z,14.86
2023-04-18T23:39:34.225Z,14.83
2023-04-18T23:42:37.263Z,14.71
2023-04-18T23:45:42.582Z,14.81
2023-04-18T23:48:46.140Z,14.87
2023-04-18T23:51:48.943Z,14.72
2023-04-18T23:54:52.001Z,14.77
2023-04-18T23:57:54.651Z,14.79
